createdAt,value
2023-12-08T00:00:51.742Z,100718.13
2023-12-08T00:01:44.394Z,100721.41
2023-12-08T00:02:59.493Z,100723.06
2023-12-08T00:03:50.627Z,100725.88
2023-12-08T00:04:33.606Z,100713.84
2023-12-08T00:06:44.301Z,100716.47
2023-12-08T00:07:22.084Z,100720.94
2023-12-08T00:08:00.232Z,100715.66
2023-12-08T00:08:43.103Z,100715.50
2023-12-08T00:09:48.191Z,100717.31
2023-12-08T00:10:42.185Z,100716.31
2023-12-08T00:11:30.301Z,100714.31
2023-12-08T00:12:17.542Z,100721.41
2023-12-08T00:12:56.606Z,100717.78
2023-12-08T00:13:40.028Z,100718.75
2023-12-08T00:14:21.087Z,100717.78
2023-12-08T00:15:08.836Z,100713.47
2023-12-08T00:15:56.498Z,100710.19
2023-12-08T00:16:44.574Z,100709.53
2023-12-08T00:17:27.018Z,100713.19
2023-12-08T00:18:10.317Z,100707.88
2023-12-08T00:18:53.737Z,100712.03
2023-12-08T00:19:34.455Z,100712.03
2023-12-08T00:20:18.794Z,100708.38
2023-12-08T00:21:03.553Z,100712.66
2023-12-08T00:22:06.223Z,100714.47
2023-12-08T00:23:05.043Z,100719.59
2023-12-08T00:23:44.350Z,100709.84
2023-12-08T00:26:26.740Z,100713.47
2023-12-08T00:27:27.494Z,100708.19
2023-12-08T00:28:27.697Z,100709.00
2023-12-08T00:29:11.984Z,100705.19
2023-12-08T00:29:56.283Z,100706.84
2023-12-08T00:30:58.046Z,100709.31
2023-12-08T00:31:37.545Z,100709.31
2023-12-08T00:32:18.529Z,100703.03
2023-12-08T00:33:02.279Z,100702.22
2023-12-08T00:33:40.279Z,100708.50
2023-12-08T00:35:20.013Z,100706.50
2023-12-08T00:36:11.155Z,100702.00
2023-12-08T00:37:16.990Z,100701.00
2023-12-08T00:37:54.988Z,100704.66
2023-12-08T00:38:42.985Z,100699.38
2023-12-08T00:39:46.423Z,100697.53
2023-12-08T00:40:22.686Z,100700.84
2023-12-08T00:41:21.688Z,100702.50
2023-12-08T00:42:09.201Z,100699.03
2023-12-08T00:42:58.249Z,100699.03
2023-12-08T00:43:49.041Z,100697.84
2023-12-08T00:44:36.124Z,100704.13
2023-12-08T00:45:34.651Z,100698.84
2023-12-08T00:46:33.431Z,100699.66
2023-12-08T00:47:11.840Z,100702.13
2023-12-08T00:47:59.924Z,100694.38
2023-12-08T00:48:45.635Z,100694.19
2023-12-08T00:49:33.250Z,100694.19
2023-12-08T00:50:12.541Z,100699.03
2023-12-08T00:50:55.303Z,100694.91
2023-12-08T00:51:30.240Z,100688.31
2023-12-08T00:52:29.976Z,100693.63
2023-12-08T00:53:24.582Z,100687.34
2023-12-08T00:54:10.439Z,100692.47
2023-12-08T00:54:48.001Z,100692.25
2023-12-08T00:55:34.180Z,100680.69
2023-12-08T00:56:27.455Z,100687.63
2023-12-08T00:57:19.339Z,100684.97
2023-12-08T00:57:56.293Z,100684.00
2023-12-08T00:59:03.929Z,100684.63
2023-12-08T01:00:00.634Z,100686.28
2023-12-08T01:00:48.264Z,100684.63
2023-12-08T01:01:29.779Z,100682.97
2023-12-08T01:02:27.248Z,100682.97
2023-12-08T01:03:17.632Z,100687.25
2023-12-08T01:03:49.844Z,100682.63
2023-12-08T01:04:36.466Z,100682.63
2023-12-08T01:05:27.842Z,100684.28
2023-12-08T01:06:13.178Z,100686.94
2023-12-08T01:06:57.501Z,100680.63
2023-12-08T01:07:47.292Z,100681.44
2023-12-08T01:08:19.335Z,100680.63
2023-12-08T01:09:07.441Z,100682.63
2023-12-08T01:09:48.213Z,100682.44
2023-12-08T01:10:37.355Z,100680.63
2023-12-08T01:11:18.849Z,100684.28
2023-12-08T01:12:20.792Z,100679.00
2023-12-08T01:12:58.841Z,100677.34
2023-12-08T01:13:31.430Z,100673.88
2023-12-08T01:14:09.390Z,100680.00
2023-12-08T01:14:47.551Z,100676.69
2023-12-08T01:15:46.482Z,100680.97
2023-12-08T01:16:36.811Z,100672.06
2023-12-08T01:17:09.180Z,100675.53
2023-12-08T01:17:59.003Z,100672.69
2023-12-08T01:19:36.685Z,100673.50
2023-12-08T01:20:40.280Z,100676.53
2023-12-08T01:21:28.889Z,100678.16
2023-12-08T01:22:37.403Z,100671.41
2023-12-08T01:23:14.543Z,100680.00
2023-12-08T01:24:06.266Z,100676.34
2023-12-08T01:24:54.735Z,100676.69
2023-12-08T01:25:39.557Z,100676.06
2023-12-08T01:26:33.600Z,100672.59
2023-12-08T01:27:49.953Z,100671.94
2023-12-08T01:28:45.291Z,100675.41
2023-12-08T01:29:33.916Z,100671.94
2023-12-08T01:30:33.066Z,100669.13
2023-12-08T01:32:27.780Z,100665.81
2023-12-08T01:33:49.027Z,100658.91
2023-12-08T01:34:30.356Z,100664.81
2023-12-08T01:35:36.160Z,100663.81
2023-12-08T01:36:41.695Z,100661.19
2023-12-08T01:37:37.005Z,100658.53
2023-12-08T01:38:51.774Z,100663.81
2023-12-08T01:39:38.712Z,100664.81
2023-12-08T01:40:24.577Z,100650.16
2023-12-08T01:41:14.995Z,100659.91
2023-12-08T01:42:22.828Z,100660.72
2023-12-08T01:43:20.721Z,100664.19
2023-12-08T01:44:09.203Z,100660.91
2023-12-08T01:44:58.847Z,100663.69
2023-12-08T01:46:40.340Z,100665.44
2023-12-08T01:47:31.055Z,100660.13
2023-12-08T01:48:49.333Z,100665.44
2023-12-08T01:49:41.845Z,100668.22
2023-12-08T01:50:29.561Z,100663.97
2023-12-08T01:51:07.969Z,100666.25
2023-12-08T01:51:57.401Z,100666.09
2023-12-08T01:52:45.514Z,100663.25
2023-12-08T01:53:21.800Z,100662.25
2023-12-08T01:54:13.691Z,100664.72
2023-12-08T01:55:13.652Z,100660.22
2023-12-08T01:58:33.056Z,100661.34
2023-12-08T01:59:38.953Z,100659.69
2023-12-08T02:00:23.305Z,100665.81
2023-12-08T02:01:14.716Z,100667.63
2023-12-08T02:01:55.933Z,100663.16
2023-12-08T02:02:31.554Z,100659.53
2023-12-08T02:03:29.826Z,100662.19
2023-12-08T02:05:11.779Z,100667.09
2023-12-08T02:06:14.612Z,100658.38
2023-12-08T02:08:17.590Z,100665.94
2023-12-08T02:08:55.911Z,100661.28
2023-12-08T02:09:31.026Z,100656.66
2023-12-08T02:10:15.983Z,100664.59
2023-12-08T02:11:46.276Z,100667.22
2023-12-08T02:12:38.651Z,100663.75
2023-12-08T02:13:18.433Z,100664.75
2023-12-08T02:14:03.140Z,100663.28
2023-12-08T02:14:58.858Z,100658.84
2023-12-08T02:15:33.929Z,100663.13
2023-12-08T02:16:11.119Z,100658.63
2023-12-08T02:16:52.459Z,100659.47
2023-12-08T02:17:54.524Z,100663.75
2023-12-08T02:18:42.690Z,100666.22
2023-12-08T02:19:25.143Z,100660.13
2023-12-08T02:20:08.916Z,100660.94
2023-12-08T02:20:49.894Z,100658.28
2023-12-08T02:21:36.905Z,100657.47
2023-12-08T02:22:18.377Z,100661.78
2023-12-08T02:22:55.963Z,100661.78
2023-12-08T02:23:37.179Z,100658.47
2023-12-08T02:25:41.767Z,100656.88
2023-12-08T02:27:38.136Z,100658.53
2023-12-08T02:28:26.286Z,100665.47
2023-12-08T02:29:11.433Z,100656.53
2023-12-08T02:30:10.826Z,100660.66
2023-12-08T02:30:56.319Z,100661.47
2023-12-08T02:31:30.645Z,100658.63
2023-12-08T02:33:21.534Z,100661.13
2023-12-08T02:34:00.026Z,100664.41
2023-12-08T02:34:46.203Z,100661.78
2023-12-08T02:35:48.948Z,100666.03
2023-12-08T02:36:35.505Z,100660.56
2023-12-08T02:37:27.942Z,100660.41
2023-12-08T02:38:01.159Z,100662.06
2023-12-08T02:38:37.285Z,100665.69
2023-12-08T02:39:20.788Z,100667.69
2023-12-08T02:39:59.842Z,100661.78
2023-12-08T02:40:47.125Z,100670.53
2023-12-08T02:41:34.264Z,100664.41
2023-12-08T02:42:25.224Z,100660.28
2023-12-08T02:43:03.109Z,100662.31
2023-12-08T02:43:43.628Z,100660.81
2023-12-08T02:44:19.345Z,100662.63
2023-12-08T02:45:03.820Z,100662.47
2023-12-08T02:45:41.354Z,100671.22
2023-12-08T02:46:37.254Z,100661.47
2023-12-08T02:47:18.074Z,100666.78
2023-12-08T02:48:07.948Z,100660.47
2023-12-08T02:48:54.509Z,100670.03
2023-12-08T02:49:53.951Z,100666.41
2023-12-08T02:50:35.773Z,100661.78
2023-12-08T02:51:22.530Z,100672.16
2023-12-08T02:52:15.851Z,100673.81
2023-12-08T02:53:12.829Z,100666.69
2023-12-08T02:54:03.237Z,100670.97
2023-12-08T02:54:50.070Z,100672.63
2023-12-08T02:55:37.564Z,100670.78
2023-12-08T02:56:12.878Z,100678.38
2023-12-08T02:56:56.290Z,100669.63
2023-12-08T02:57:45.658Z,100671.06
2023-12-08T02:58:21.106Z,100668.44
2023-12-08T02:59:35.161Z,100671.91
2023-12-08T03:00:34.397Z,100671.91
2023-12-08T03:01:09.371Z,100668.25
2023-12-08T03:01:44.098Z,100672.56
2023-12-08T03:02:28.060Z,100671.53
2023-12-08T03:03:14.523Z,100672.34
2023-12-08T03:04:15.800Z,100670.38
2023-12-08T03:05:23.633Z,100674.66
2023-12-08T03:06:01.390Z,100667.56
2023-12-08T03:06:42.274Z,100674.47
2023-12-08T03:07:28.850Z,100678.75
2023-12-08T03:08:07.138Z,100674.13
2023-12-08T03:08:48.363Z,100680.25
2023-12-08T03:09:41.448Z,100679.41
2023-12-08T03:10:24.754Z,100671.47
2023-12-08T03:11:16.229Z,100672.47
2023-12-08T03:12:00.922Z,100673.47
2023-12-08T03:12:53.913Z,100674.47
2023-12-08T03:13:43.879Z,100675.13
2023-12-08T03:16:04.441Z,100672.34
2023-12-08T03:17:00.110Z,100674.38
2023-12-08T03:17:37.800Z,100677.19
2023-12-08T03:18:45.842Z,100673.56
2023-12-08T03:19:48.056Z,100676.03
2023-12-08T03:20:44.640Z,100673.19
2023-12-08T03:21:33.020Z,100675.84
2023-12-08T03:22:11.354Z,100669.72
2023-12-08T03:22:52.773Z,100669.72
2023-12-08T03:23:42.760Z,100669.91
2023-12-08T03:24:24.240Z,100672.72
2023-12-08T03:25:30.188Z,100674.72
2023-12-08T03:26:11.912Z,100672.28
2023-12-08T03:26:53.161Z,100673.09
2023-12-08T03:27:39.577Z,100676.56
2023-12-08T03:28:29.831Z,100670.25
2023-12-08T03:29:14.119Z,100675.38
2023-12-08T03:30:01.501Z,100663.34
2023-12-08T03:30:49.279Z,100667.81
2023-12-08T03:31:45.993Z,100666.78
2023-12-08T03:32:39.977Z,100666.59
2023-12-08T03:33:36.135Z,100668.25
2023-12-08T03:34:09.321Z,100662.81
2023-12-08T03:35:17.113Z,100668.72
2023-12-08T03:36:00.130Z,100665.91
2023-12-08T03:36:34.396Z,100667.56
2023-12-08T03:37:13.233Z,100665.69
2023-12-08T03:39:01.394Z,100666.72
2023-12-08T03:39:42.793Z,100667.56
2023-12-08T03:40:32.931Z,100666.72
2023-12-08T03:41:23.010Z,100662.25
2023-12-08T03:42:12.811Z,100658.59
2023-12-08T03:43:01.457Z,100664.91
2023-12-08T03:43:41.431Z,100670.38
2023-12-08T03:45:45.662Z,100665.91
2023-12-08T03:46:35.172Z,100663.88
2023-12-08T03:47:10.463Z,100659.25
2023-12-08T03:47:55.714Z,100672.31
2023-12-08T03:48:45.065Z,100666.81
2023-12-08T03:49:26.524Z,100661.34
2023-12-08T03:50:20.513Z,100660.38
2023-12-08T03:51:43.617Z,100666.47
2023-12-08T03:52:30.639Z,100664.63
2023-12-08T03:53:11.703Z,100657.06
2023-12-08T03:53:55.440Z,100662.34
2023-12-08T03:54:38.892Z,100662.34
2023-12-08T03:55:16.019Z,100660.53
2023-12-08T03:56:03.441Z,100654.59
2023-12-08T03:57:04.789Z,100658.25
2023-12-08T03:58:06.339Z,100656.59
2023-12-08T03:58:41.880Z,100655.94
2023-12-08T03:59:26.393Z,100650.84
2023-12-08T04:00:12.497Z,100661.44
2023-12-08T04:00:48.957Z,100651.41
2023-12-08T04:01:27.301Z,100645.28
2023-12-08T04:02:23.651Z,100652.38
2023-12-08T04:03:11.730Z,100649.91
2023-12-08T04:04:04.848Z,100648.09
2023-12-08T04:04:40.266Z,100648.91
2023-12-08T04:05:27.124Z,100647.94
2023-12-08T04:06:14.885Z,100651.19
2023-12-08T04:08:32.023Z,100649.38
2023-12-08T04:09:28.933Z,100652.03
2023-12-08T04:10:23.164Z,100649.56
2023-12-08T04:10:58.350Z,100653.66
2023-12-08T04:11:35.862Z,100649.38
2023-12-08T04:12:22.540Z,100650.03
2023-12-08T04:15:11.651Z,100651.47
2023-12-08T04:16:01.148Z,100657.44
2023-12-08T04:16:41.439Z,100650.50
2023-12-08T04:17:19.938Z,100648.84
2023-12-08T04:18:15.138Z,100658.59
2023-12-08T04:18:50.393Z,100655.31
2023-12-08T04:19:38.254Z,100643.09
2023-12-08T04:20:16.582Z,100662.25
2023-12-08T04:21:03.009Z,100656.78
2023-12-08T04:21:42.544Z,100659.41
2023-12-08T04:22:30.472Z,100655.78
2023-12-08T04:23:08.693Z,100654.94
2023-12-08T04:23:44.119Z,100663.72
2023-12-08T04:24:31.239Z,100662.06
2023-12-08T04:25:09.808Z,100665.53
2023-12-08T04:26:05.402Z,100660.91
2023-12-08T04:27:49.090Z,100666.19
2023-12-08T04:28:39.422Z,100669.00
2023-12-08T04:29:23.232Z,100664.72
2023-12-08T04:31:05.870Z,100671.47
2023-12-08T04:32:44.520Z,100669.66
2023-12-08T04:33:20.336Z,100670.47
2023-12-08T04:34:04.813Z,100670.28
2023-12-08T04:34:45.969Z,100668.47
2023-12-08T04:35:28.678Z,100669.47
2023-12-08T04:36:20.354Z,100666.81
2023-12-08T04:36:58.772Z,100660.91
2023-12-08T04:37:39.197Z,100666.34
2023-12-08T04:38:23.031Z,100663.88
2023-12-08T04:39:13.200Z,100664.91
2023-12-08T04:40:02.255Z,100663.25
2023-12-08T04:40:57.927Z,100661.44
2023-12-08T04:41:39.485Z,100662.25
2023-12-08T04:42:13.581Z,100665.91
2023-12-08T04:43:00.285Z,100667.56
2023-12-08T04:44:04.394Z,100662.59
2023-12-08T04:44:48.630Z,100661.97
2023-12-08T04:45:53.763Z,100664.41
2023-12-08T04:46:53.346Z,100661.59
2023-12-08T04:47:28.928Z,100656.50
2023-12-08T04:48:31.373Z,100669.09
2023-12-08T04:49:29.454Z,100666.44
2023-12-08T04:50:01.839Z,100662.59
2023-12-08T04:50:38.192Z,100663.59
2023-12-08T04:51:25.782Z,100660.94
2023-12-08T04:52:19.114Z,100662.59
2023-12-08T04:53:05.750Z,100663.44
2023-12-08T04:53:47.322Z,100665.91
2023-12-08T04:54:53.903Z,100666.53
2023-12-08T04:55:32.193Z,100662.25
2023-12-08T04:56:35.093Z,100661.44
2023-12-08T04:57:30.472Z,100662.25
2023-12-08T04:58:42.373Z,100659.63
2023-12-08T04:59:33.682Z,100661.25
2023-12-08T05:00:17.770Z,100667.19
2023-12-08T05:01:16.425Z,100658.25
2023-12-08T05:02:04.502Z,100662.72
2023-12-08T05:02:44.623Z,100663.53
2023-12-08T05:03:25.421Z,100663.53
2023-12-08T05:04:13.514Z,100666.34
2023-12-08T05:05:04.847Z,100662.25
2023-12-08T05:06:04.463Z,100662.44
2023-12-08T05:06:42.581Z,100658.13
2023-12-08T05:07:43.877Z,100658.13
2023-12-08T05:08:37.868Z,100655.31
2023-12-08T05:09:16.932Z,100660.41
2023-12-08T05:10:11.434Z,100658.78
2023-12-08T05:10:52.930Z,100656.97
2023-12-08T05:11:33.109Z,100657.78
2023-12-08T05:12:21.848Z,100663.06
2023-12-08T05:14:15.997Z,100659.78
2023-12-08T05:15:06.093Z,100662.59
2023-12-08T05:15:47.672Z,100656.50
2023-12-08T05:16:39.693Z,100658.97
2023-12-08T05:18:53.915Z,100652.13
2023-12-08T05:19:36.650Z,100655.59
2023-12-08T05:20:24.887Z,100657.44
2023-12-08T05:21:08.349Z,100656.59
2023-12-08T05:21:59.866Z,100653.31
2023-12-08T05:22:35.293Z,100661.59
2023-12-08T05:23:19.895Z,100658.50
2023-12-08T05:23:56.862Z,100653.38
2023-12-08T05:24:44.460Z,100650.91
2023-12-08T05:25:28.441Z,100658.38
2023-12-08T05:26:10.864Z,100654.28
2023-12-08T05:27:07.319Z,100660.75
2023-12-08T05:27:53.210Z,100662.41
2023-12-08T05:28:37.251Z,100661.41
2023-12-08T05:29:27.087Z,100666.31
2023-12-08T05:31:06.818Z,100664.97
2023-12-08T05:31:39.180Z,100661.31
2023-12-08T05:32:17.821Z,100661.50
2023-12-08T05:32:56.515Z,100664.97
2023-12-08T05:33:52.539Z,100658.06
2023-12-08T05:34:40.584Z,100661.50
2023-12-08T05:35:18.898Z,100660.88
2023-12-08T05:35:59.931Z,100668.97
2023-12-08T05:37:33.328Z,100657.75
2023-12-08T05:38:27.439Z,100656.28
2023-12-08T05:39:07.094Z,100665.03
2023-12-08T05:39:47.536Z,100665.03
2023-12-08T05:40:30.980Z,100652.63
2023-12-08T05:41:16.033Z,100659.41
2023-12-08T05:42:10.504Z,100663.69
2023-12-08T05:43:01.265Z,100655.56
2023-12-08T05:43:49.440Z,100659.03
2023-12-08T05:44:30.238Z,100658.84
2023-12-08T05:45:20.426Z,100654.22
2023-12-08T05:46:13.248Z,100657.69
2023-12-08T05:46:54.476Z,100652.22
2023-12-08T05:47:27.278Z,100652.03
2023-12-08T05:48:07.931Z,100652.84
2023-12-08T05:48:49.460Z,100652.03
2023-12-08T05:49:36.994Z,100654.03
2023-12-08T05:50:33.621Z,100652.38
2023-12-08T05:51:08.515Z,100652.38
2023-12-08T05:51:44.932Z,100654.88
2023-12-08T05:52:31.095Z,100645.09
2023-12-08T05:53:09.189Z,100649.38
2023-12-08T05:53:51.371Z,100658.97
2023-12-08T05:54:30.280Z,100653.22
2023-12-08T05:55:14.834Z,100645.81
2023-12-08T05:56:04.676Z,100652.47
2023-12-08T05:56:39.542Z,100654.47
2023-12-08T05:57:20.890Z,100648.34
2023-12-08T06:00:19.842Z,100649.16
2023-12-08T06:01:05.754Z,100646.91
2023-12-08T06:01:47.662Z,100648.72
2023-12-08T06:02:31.138Z,100652.00
2023-12-08T06:03:37.317Z,100654.28
2023-12-08T06:04:34.910Z,100658.22
2023-12-08T06:05:22.193Z,100657.03
2023-12-08T06:05:58.469Z,100655.41
2023-12-08T06:06:53.048Z,100658.84
2023-12-08T06:07:35.413Z,100665.78
2023-12-08T06:08:15.366Z,100658.50
2023-12-08T06:08:51.257Z,100668.09
2023-12-08T06:09:38.944Z,100670.53
2023-12-08T06:10:14.462Z,100663.44
2023-12-08T06:10:49.766Z,100671.19
2023-12-08T06:11:26.568Z,100664.91
2023-12-08T06:12:32.941Z,100665.69
2023-12-08T06:13:33.495Z,100658.59
2023-12-08T06:14:32.727Z,100661.25
2023-12-08T06:15:19.266Z,100661.91
2023-12-08T06:16:44.210Z,100669.84
2023-12-08T06:17:50.033Z,100669.84
2023-12-08T06:18:59.487Z,100663.72
2023-12-08T06:20:10.213Z,100665.53
2023-12-08T06:20:43.355Z,100669.38
2023-12-08T06:22:22.838Z,100668.19
2023-12-08T06:23:17.031Z,100669.66
2023-12-08T06:24:07.699Z,100670.47
2023-12-08T06:24:41.257Z,100671.13
2023-12-08T06:25:48.063Z,100673.75
2023-12-08T06:26:32.382Z,100674.41
2023-12-08T06:27:12.413Z,100672.56
2023-12-08T06:28:30.477Z,100665.28
2023-12-08T06:29:21.096Z,100669.28
2023-12-08T06:30:09.183Z,100674.13
2023-12-08T06:31:00.218Z,100680.94
2023-12-08T06:31:41.048Z,100671.91
2023-12-08T06:32:44.185Z,100679.00
2023-12-08T06:34:46.543Z,100678.00
2023-12-08T06:35:33.999Z,100669.44
2023-12-08T06:36:29.422Z,100668.81
2023-12-08T06:38:05.733Z,100673.72
2023-12-08T06:38:45.006Z,100679.00
2023-12-08T06:39:23.308Z,100677.63
2023-12-08T06:40:03.328Z,100666.03
2023-12-08T06:40:56.032Z,100671.16
2023-12-08T06:41:39.787Z,100674.25
2023-12-08T06:42:36.698Z,100672.28
2023-12-08T06:43:24.605Z,100672.06
2023-12-08T06:44:19.286Z,100671.06
2023-12-08T06:46:05.628Z,100669.25
2023-12-08T06:47:01.179Z,100669.91
2023-12-08T06:47:40.235Z,100670.25
2023-12-08T06:48:28.331Z,100664.97
2023-12-08T06:49:25.178Z,100672.06
2023-12-08T06:50:09.369Z,100678.84
2023-12-08T06:51:58.619Z,100669.19
2023-12-08T06:53:08.005Z,100667.19
2023-12-08T06:53:51.949Z,100663.53
2023-12-08T06:54:45.846Z,100675.75
2023-12-08T06:55:26.980Z,100668.63
2023-12-08T06:56:17.321Z,100668.63
2023-12-08T06:57:55.262Z,100665.16
2023-12-08T06:58:42.311Z,100668.19
2023-12-08T06:59:27.242Z,100663.72
2023-12-08T07:00:32.655Z,100668.84
2023-12-08T07:01:13.442Z,100659.88
2023-12-08T07:01:53.143Z,100666.00
2023-12-08T07:02:35.242Z,100669.47
2023-12-08T07:03:20.054Z,100667.47
2023-12-08T07:04:12.149Z,100669.75
2023-12-08T07:04:50.494Z,100659.00
2023-12-08T07:05:41.003Z,100666.72
2023-12-08T07:06:19.573Z,100667.38
2023-12-08T07:06:52.842Z,100670.03
2023-12-08T07:07:44.935Z,100671.69
2023-12-08T07:08:29.428Z,100669.88
2023-12-08T07:09:16.731Z,100670.47
2023-12-08T07:10:05.293Z,100668.66
2023-12-08T07:10:50.485Z,100672.59
2023-12-08T07:11:37.879Z,100670.59
2023-12-08T07:12:37.782Z,100669.41
2023-12-08T07:13:29.561Z,100674.53
2023-12-08T07:14:40.128Z,100665.59
2023-12-08T07:15:27.067Z,100661.91
2023-12-08T07:16:27.254Z,100669.69
2023-12-08T07:17:25.881Z,100662.19
2023-12-08T07:18:02.885Z,100665.38
2023-12-08T07:18:44.446Z,100660.28
2023-12-08T07:19:31.393Z,100671.88
2023-12-08T07:20:41.713Z,100672.50
2023-12-08T07:21:21.390Z,100660.09
2023-12-08T07:23:09.998Z,100667.31
2023-12-08T07:23:57.613Z,100666.94
2023-12-08T07:24:56.118Z,100664.13
2023-12-08T07:25:34.220Z,100660.47
2023-12-08T07:26:47.404Z,100664.94
2023-12-08T07:27:28.624Z,100665.94
2023-12-08T07:28:06.196Z,100663.28
2023-12-08T07:28:40.946Z,100667.38
2023-12-08T07:29:20.037Z,100666.41
2023-12-08T07:30:05.411Z,100661.75
2023-12-08T07:30:56.615Z,100666.03
2023-12-08T07:31:47.606Z,100667.50
2023-12-08T07:32:26.451Z,100667.13
2023-12-08T07:33:24.470Z,100667.56
2023-12-08T07:34:21.913Z,100661.94
2023-12-08T07:35:27.012Z,100665.56
2023-12-08T07:37:17.137Z,100669.22
2023-12-08T07:38:01.769Z,100670.69
2023-12-08T07:39:09.080Z,100663.56
2023-12-08T07:40:20.346Z,100670.50
2023-12-08T07:41:34.376Z,100664.38
2023-12-08T07:42:21.000Z,100666.03
2023-12-08T07:43:12.611Z,100656.06
2023-12-08T07:43:56.632Z,100665.47
2023-12-08T07:44:46.213Z,100657.97
2023-12-08T07:45:49.143Z,100661.44
2023-12-08T07:48:25.686Z,100658.63
2023-12-08T07:49:22.054Z,100655.31
2023-12-08T07:50:30.726Z,100653.50
2023-12-08T07:51:31.764Z,100656.41
2023-12-08T07:52:28.679Z,100649.47
2023-12-08T07:53:30.256Z,100649.47
2023-12-08T07:54:56.596Z,100661.34
2023-12-08T07:55:38.706Z,100654.03
2023-12-08T07:56:22.809Z,100654.47
2023-12-08T07:57:15.825Z,100662.44
2023-12-08T07:58:00.368Z,100655.47
2023-12-08T07:58:38.659Z,100653.47
2023-12-08T07:59:22.507Z,100653.31
2023-12-08T08:00:14.400Z,100658.97
2023-12-08T08:01:02.437Z,100651.50
2023-12-08T08:02:01.713Z,100655.31
2023-12-08T08:02:57.252Z,100652.31
2023-12-08T08:04:11.891Z,100658.44
2023-12-08T08:05:01.448Z,100654.75
2023-12-08T08:05:51.252Z,100655.59
2023-12-08T08:06:55.258Z,100645.25
2023-12-08T08:07:45.575Z,100650.00
2023-12-08T08:08:25.324Z,100652.28
2023-12-08T08:10:05.832Z,100643.59
2023-12-08T08:10:48.522Z,100644.84
2023-12-08T08:11:54.682Z,100649.97
2023-12-08T08:12:44.324Z,100648.78
2023-12-08T08:13:38.482Z,100645.94
2023-12-08T08:14:35.857Z,100651.25
2023-12-08T08:16:15.657Z,100646.13
2023-12-08T08:16:52.316Z,100635.53
2023-12-08T08:17:32.226Z,100638.38
2023-12-08T08:18:11.160Z,100642.59
2023-12-08T08:18:58.742Z,100641.78
2023-12-08T08:19:32.991Z,100642.38
2023-12-08T08:20:31.636Z,100640.81
2023-12-08T08:21:18.650Z,100642.91
2023-12-08T08:22:57.392Z,100627.34
2023-12-08T08:24:09.875Z,100636.56
2023-12-08T08:24:52.895Z,100635.38
2023-12-08T08:25:45.605Z,100633.16
2023-12-08T08:26:27.829Z,100621.16
2023-12-08T08:27:08.503Z,100626.91
2023-12-08T08:27:56.330Z,100631.00
2023-12-08T08:28:32.553Z,100630.63
2023-12-08T08:29:57.724Z,100620.09
2023-12-08T08:30:39.125Z,100629.88
2023-12-08T08:31:37.002Z,100622.56
2023-12-08T08:32:12.911Z,100624.66
2023-12-08T08:33:20.674Z,100625.06
2023-12-08T08:34:18.507Z,100625.91
2023-12-08T08:35:01.322Z,100631.00
2023-12-08T08:35:47.285Z,100627.34
2023-12-08T08:36:45.641Z,100627.34
2023-12-08T08:37:51.256Z,100627.34
2023-12-08T08:38:43.154Z,100622.69
2023-12-08T08:39:34.803Z,100628.84
2023-12-08T08:40:46.888Z,100625.63
2023-12-08T08:41:36.973Z,100629.69
2023-12-08T08:42:19.527Z,100628.09
2023-12-08T08:43:17.664Z,100618.88
2023-12-08T08:44:26.416Z,100621.28
2023-12-08T08:45:12.470Z,100623.94
2023-12-08T08:45:47.711Z,100634.78
2023-12-08T08:46:48.615Z,100623.53
2023-12-08T08:47:39.308Z,100623.94
2023-12-08T08:50:11.031Z,100618.63
2023-12-08T08:51:19.022Z,100620.50
2023-12-08T08:51:56.470Z,100622.78
2023-12-08T08:52:47.844Z,100619.72
2023-12-08T08:54:34.921Z,100621.22
2023-12-08T08:56:27.708Z,100631.44
2023-12-08T08:57:18.583Z,100623.88
2023-12-08T08:58:10.493Z,100628.94
2023-12-08T08:58:49.745Z,100627.69
2023-12-08T08:59:27.956Z,100626.69
2023-12-08T09:00:06.655Z,100623.81
2023-12-08T09:00:51.898Z,100624.66
2023-12-08T09:01:53.159Z,100625.28
2023-12-08T09:02:29.898Z,100618.34
2023-12-08T09:03:11.728Z,100627.28
2023-12-08T09:04:04.183Z,100622.00
2023-12-08T09:05:00.914Z,100624.88
2023-12-08T09:05:55.923Z,100620.59
2023-12-08T09:07:33.725Z,100618.97
2023-12-08T09:08:30.947Z,100621.41
2023-12-08T09:09:24.978Z,100619.22
2023-12-08T09:10:40.971Z,100627.19
2023-12-08T09:11:40.788Z,100620.84
2023-12-08T09:12:25.381Z,100619.41
2023-12-08T09:14:05.946Z,100616.69
2023-12-08T09:14:45.618Z,100619.97
2023-12-08T09:15:33.206Z,100615.28
2023-12-08T09:16:20.703Z,100610.78
2023-12-08T09:17:07.174Z,100612.44
2023-12-08T09:17:41.873Z,100610.22
2023-12-08T09:20:22.405Z,100610.31
2023-12-08T09:21:11.679Z,100604.00
2023-12-08T09:21:54.219Z,100606.66
2023-12-08T09:22:44.325Z,100602.59
2023-12-08T09:23:29.340Z,100600.75
2023-12-08T09:24:10.358Z,100600.56
2023-12-08T09:24:48.813Z,100606.50
2023-12-08T09:25:29.790Z,100595.25
2023-12-08T09:26:08.768Z,100599.56
2023-12-08T09:28:05.482Z,100602.81
2023-12-08T09:28:54.468Z,100595.03
2023-12-08T09:29:48.065Z,100607.47
2023-12-08T09:30:39.667Z,100600.94
2023-12-08T09:31:23.382Z,100602.22
2023-12-08T09:32:07.501Z,100606.69
2023-12-08T09:32:52.225Z,100598.94
2023-12-08T09:33:30.669Z,100600.16
2023-12-08T09:35:07.790Z,100596.44
2023-12-08T09:35:40.807Z,100598.25
2023-12-08T09:36:32.350Z,100596.63
2023-12-08T09:39:44.928Z,100598.53
2023-12-08T09:40:23.558Z,100596.50
2023-12-08T09:41:32.370Z,100593.44
2023-12-08T09:42:21.508Z,100600.84
2023-12-08T09:44:23.228Z,100604.13
2023-12-08T09:45:23.088Z,100594.75
2023-12-08T09:46:09.669Z,100591.66
2023-12-08T09:47:04.025Z,100599.81
2023-12-08T09:48:01.007Z,100587.97
2023-12-08T09:48:38.572Z,100601.31
2023-12-08T09:49:45.482Z,100598.47
2023-12-08T09:50:47.170Z,100595.81
2023-12-08T09:51:32.593Z,100594.41
2023-12-08T09:52:16.655Z,100595.63
2023-12-08T09:52:59.809Z,100593.22
2023-12-08T09:54:58.645Z,100599.59
2023-12-08T09:56:08.453Z,100601.22
2023-12-08T09:57:45.928Z,100596.47
2023-12-08T09:58:26.969Z,100592.38
2023-12-08T09:59:12.605Z,100593.59
2023-12-08T09:59:52.443Z,100595.63
2023-12-08T10:00:42.841Z,100588.69
2023-12-08T10:01:29.650Z,100593.16
2023-12-08T10:02:05.317Z,100593.16
2023-12-08T10:02:46.426Z,100595.22
2023-12-08T10:03:20.342Z,100596.41
2023-12-08T10:04:00.858Z,100596.59
2023-12-08T10:04:55.957Z,100589.66
2023-12-08T10:06:20.329Z,100587.63
2023-12-08T10:07:22.647Z,100586.03
2023-12-08T10:08:26.243Z,100585.00
2023-12-08T10:09:11.778Z,100586.84
2023-12-08T10:09:49.944Z,100585.00
2023-12-08T10:10:28.914Z,100583.38
2023-12-08T10:11:27.155Z,100586.84
2023-12-08T10:12:25.664Z,100581.94
2023-12-08T10:13:16.817Z,100583.78
2023-12-08T10:13:54.586Z,100584.78